18ème Rallye National Terre de Langres
Championnat de France des Rallyes sur Terre
1 4 MAURIN Julien/URAL Olivier Citroën DS3 WRC A 8W 21:25,0 1
2 5 TRON Noel/OBRECHT Justine Citroën DS3 WRC A 8W 21:33,1 +00:08,1 +00:08,1 1
3 2 DURBEC Thibault/RENUCCI Jacques-Julien Citroën DS3 WRC A 8W 21:53,2 +00:28,2 +00:20,1 1
4 3 CUOQ Jean-Marie/GRANDEMANGE Marielle Citroën C4 WRC FA 8W 22:15,0 +00:50,0 +00:21,8 1
5 9 AMOURETTE Marc/MARIE Gwenola Citroën DS3 R5 R 5 22:24,3 +00:59,3 +00:09,3
6 7 FERAUD Cyrille/DUCHEMIN Aymeric Citroën C4 WRC FA 8W 22:48,7 +01:23,7 +00:24,4 1
7 1 BERFA Jordan/AUGUSTIN Damien HUYNDAI i20 R5 R 5 23:00,7 +01:35,7 +00:12,0 1
8 6 BAUD Lionel/SERRE Pascal Ford Focus WRC FA 8W 23:07,1 +01:42,1 +00:06,4 1
9 8 MORDACQ Arnaud/RATIER Marie-Noelle Mitsubishi Lancer Evo9 FN 4 23:36,2 +02:11,2 +00:29,1 1
10 14 CECCHI Philippe/LETOURNEAU Lara Citroën DS3 R5 R 5 24:18,6 +02:53,6 +00:42,4
11 39 MASCLAUX Arnaud/MOULIN Alexandre Renault Clio Ragnotti F2 14 24:21,9 +02:56,9 +00:03,3 1 2
12 16 PELUTTIERO Thibaud/REICHENECKER Josh Mitsubishi Lancer EvoX R 4 24:51,1 +03:26,1 +00:29,2 1
13 31 COLNEY Thierry/FORTMANN Patrick Citroën DS3 R3 R 3 24:56,8 +03:31,8 +00:05,7 1 2
14 19 CHAYNES Gary/TRIBOUT Christian Mitsubishi Lancer Evo6 FA 8 25:00,0 +03:35,0 +00:03,2 1
15 23 BENIER Thomas/PRASSE Cédric Subaru Impreza WRX N 4 25:05,9 +03:40,9 +00:05,9 1
16 66 CACHOD Sylvain/POURCELOT Aurélien Citroën C2 R2 R 2 25:07,1 +03:42,1 +00:01,2
17 38 JULIA David/AUBERTIN Ludovic Peugeot 206 Rc F2 14 25:09,6 +03:44,6 +00:02,5 1 2
18 25 MOREL Jean-Luc/GIDEL Philippe Subaru Impreza WRX FN 4 25:10,5 +03:45,5 +00:00,9
19 54 MARGAILLAN Hugo/POUJOL Sébastien Ford Fiesta R2J R 2 25:17,7 +03:52,7 +00:07,2 4
20 62 CHALAL Theo/LE FLOCH Franck Ford Fiesta R2J R 2 25:18,0 +03:53,0 +00:00,3 4
21 42 FRANCESCHI Jean-Baptiste/COURBON Romain Ford Fiesta R2J R 2 25:24,9 +03:59,9 +00:06,9 4
22 61 CORNU Alexandre/FASSOLA Thibault Ford Fiesta R2J R 2 25:32,4 +04:07,4 +00:07,5 4
23 40 VITAL Jean-Pierre/YVERNAULT Eric Citroën Saxo VTS F2 13 25:35,0 +04:10,0 +00:02,6 1 2
24 63 MOLLARD Alexandre/EYMIN Nicolas Peugeot 208 VTI R 2 25:36,5 +04:11,5 +00:01,5
25 57 CARTIER Victor/CRAEN Fabien Ford Fiesta R2J R 2 25:41,9 +04:16,9 +00:05,4 4
26 43 DI FANTE Romain/TEMPIER Romain Ford Fiesta R2J R 2 25:45,2 +04:20,2 +00:03,3 4
27 26 DELOY David/OGIER Cédric Mitsubishi Lancer EvoX N 4 25:45,3 +04:20,3 +00:00,1
28 17 CLARETY Jérôme/LACOSTE Vincent Mitsubishi Lancer EvoX R 4 25:46,3 +04:21,3 +00:01,0
29 37 GUINCHARD Emmanuel/CHATELAIN Mickaël Peugeot 207 Rc R 3 25:47,4 +04:22,4 +00:01,1
30 48 JOUINES Jean/CHABBERT Martin Ford Fiesta R2J R 2 25:50,7 +04:25,7 +00:03,3 4
31 78 RAYNAUD Gabriel/JULIEN William Seat Ibiza GTI F2 14 25:51,8 +04:26,8 +00:01,1 1 2
32 30 ASTIER Loïc/DECLERCK Loïc Citroën DS3 R3 R 3 25:52,5 +04:27,5 +00:00,7 1 2
33 64 GUIBERT Jean-Christophe/GRACIAL Laurent Ford Fiesta R2 R 2 25:57,9 +04:32,9 +00:05,4
34 20 GAIDOZ Hervé/RICHARD François Subaru Impreza WRX FA 8 26:04,6 +04:39,6 +00:06,7 1
35 35 FRANCE Julien/MAZARGUIL Philippe Citroën DS3 R3 R 3 26:06,6 +04:41,6 +00:02,0
36 18 SALIN Daniel/SALIN Brigitte Subaru Impreza WRX R 4 26:08,2 +04:43,2 +00:01,6
37 51 MOUSTIN Doriann/DESNOYER Alexia Ford Fiesta R2J R 2 26:12,8 +04:47,8 +00:04,6 4
38 52 GIUSTI Igor/DINI Gilbert Ford Fiesta R2J R 2 26:17,3 +04:52,3 +00:04,5 4
39 49 GOUPIL Jocerand/CIANFARANI Anthoni Ford Fiesta R2J R 2 26:20,2 +04:55,2 +00:02,9 4
40 41 SABATIER Florent/SANTIAGO Thomas Peugeot 106 S16 FA 6 26:20,6 +04:55,6 +00:00,4 1 2
41 24 MARTI Christian/LAVIALE Jean-Marc Mitsubishi Lancer Evo9 FN 4 26:27,2 +05:02,2 +00:06,6 1
42 55 PONTAL Julien/BARRAL Florian Ford Fiesta R2J R 2 26:28,3 +05:03,3 +00:01,1 4
43 44 BOULENC Benjamin/DOS REIS Sébastien Ford Fiesta R2J R 2 26:29,9 +05:04,9 +00:01,6 4
44 85 GERMAIN Alex/POIROT Edgard Peugeot 205 GTI F2 13 26:32,8 +05:07,8 +00:02,9
45 68 PAILLER Julien/HENQUINET Sébastien Citroën Saxo T4 FA 6K 26:32,9 +05:07,9 +00:00,1
46 88 BRISSON Eddy/MASSON Pascal Suzuki Swift Sport FN 2 26:33,8 +05:08,8 +00:00,9
47 69 QUARROZ Damien/VOLPI Cécile Citroën Saxo T4 FA 6K 26:35,8 +05:10,8 +00:02,0
48 71 COLOMBE Geoffroy/FABREGUE Régis Peugeot 206 XS FA 6K 26:37,2 +05:12,2 +00:01,4
49 65 FRANCESCHI Mathieu/BELHACENE Matthieu Citroën C2 R2 R 2 26:37,4 +05:12,4 +00:00,2
50 45 FOURMAUX Adrien/FOURMAUX Maxime Ford Fiesta R2J R 2 26:37,7 +05:12,7 +00:00,3 4
51 12 BESSON Jean-Pascal/ROISSAC Patrice Skoda Fabia R5 R 5 26:44,8 +05:19,8 +00:07,1 1
52 47 CHANTRIAUX Audric/PEREZ Laëtitia Ford Fiesta R2J R 2 26:45,3 +05:20,3 +00:00,5 4
53 90 BERTHOD Loïc/JOSSERAND Alexis Citroën Saxo VTS FN 2 26:54,3 +05:29,3 +00:09,0
54 53 GANDELLI David/BIAGETTI Loan Ford Fiesta R2J R 2 26:59,7 +05:34,7 +00:05,4 4
55 84 FOURNIER Nicolas/VATTEAU Kévin Peugeot 206 XS F2 13 27:05,3 +05:40,3 +00:05,6 1 2
56 74 TATIN Xavier/BAUMET Eddie Peugeot 306 S16 FA 7 27:05,3 +05:40,3
57 32 JOUINES Rémi/MAHEO Arnaud Peugeot 207 Rc R 3 27:06,8 +05:41,8 +00:01,5 1 2
58 60 EMANUEL Maxence/DALMASSO Pauline Ford Fiesta R2J R 2 27:13,0 +05:48,0 +00:06,2 4
59 75 LAGIER Fabrice/DUPONT Romuald Peugeot 306 S16 FA 7 27:16,4 +05:51,4 +00:03,4
60 11 FRAU Richard/GAREL Romain Ford Fiesta R5 R 5 27:18,8 +05:53,8 +00:02,4 1
61 82 DUCLAUX Julien/AMALBERTI Cédric Peugeot 206 Rc FN 3 27:49,4 +06:24,4 +00:30,6
62 94 VUITTENEZ Victorien/COTE COLISSON Maxime Peugeot 106 XSI FN 1 27:49,8 +06:24,8 +00:00,4
63 28 VIALLE Lilian/GHIRARDELLO Manuel Renault Clio R3 R 3 27:50,4 +06:25,4 +00:00,6 1 2
64 80 REYNAUD Yvan/SCHWARTZ Eric Opel Manta GTE F2 14 28:11,8 +06:46,8 +00:21,4
65 87 MOUGIN Jules/ROUMETTE Clemence Peugeot 106 Rallye FA 5 28:14,1 +06:49,1 +00:02,3
66 50 CURIOZ Benjamin/BEERENS Pierre Ford Fiesta R2J R 2 28:15,5 +06:50,5 +00:01,4 4
67 29 DAZY Jean-Pierre/LOIZEAUX Didier Renault Clio R3 R 3 28:16,1 +06:51,1 +00:00,6 1 2
68 36 SPART Patrick/CATTIN Charline Peugeot 207 Rc R 3 28:21,8 +06:56,8 +00:05,7
69 56 VIAROUGE David/BENZAL Aurélien Ford Fiesta R2J R 2 28:31,7 +07:06,7 +00:09,9 4
70 33 BOUCHET Guillaume/BLAMPEY Fabien Peugeot 207 Rc R 3 28:32,0 +07:07,0 +00:00,3
71 27 PRIOLO Laurent/PRIOLO Cindy Mitsubishi Lancer Evo9 FN 4 28:33,7 +07:08,7 +00:01,7
72 70 BRENIAUX Sébastien/JACQUES Anthony Peugeot 206 XS FA 6K 28:40,8 +07:15,8 +00:07,1
73 89 DOLGOPYATOFF Damien/PERRIN Christelle Suzuki Swift Sport FN 2 29:22,8 +07:57,8 +00:42,0
74 79 CLEMENT Frédéric/COSTES François Peugeot 206 Rc F2 14 29:23,1 +07:58,1 +00:00,3 1 2
75 81 VIDAL Marc/MONTARON Loïc Peugeot 309 GTI 16S F2 14 29:42,7 +08:17,7 +00:19,6
76 58 VIANO Allison/CHOL Cecilia Ford Fiesta R2J R 2 30:00,4 +08:35,4 +00:17,7 4
77 72 FETY Fabrice/ROLLION Thomas Peugeot 206 XS FA 6K 30:16,4 +08:51,4 +00:16,0
78 77 STUDER Maude/STUDER Sébastien Peugeot 206 GT FA 7 30:20,4 +08:55,4 +00:04,0
79 76 VERRY Vanessa/OUVRY Eleonore Peugeot 206 Rc FA 7 31:11,4 +09:46,4 +00:51,0
80 95 FAUR Yoann/MASSON Kévin Peugeot 205 Rallye FN 1 31:15,8 +09:50,8 +00:04,4
81 86 MAUVAIS Michel/PY Jean-Michel Peugeot 205 Rallye FA 5 31:37,7 +10:12,7 +00:21,9
82 92 FRANCOIS Léa/FRANCOIS Solene Peugeot 106 S16 FN 2 31:40,4 +10:15,4 +00:02,7
83 22 GLEY Jean-Pierre/JEUDY Nicolas B.M.W. 325 iX FA 8 32:06,0 +10:41,0 +00:25,6
84 15 FALCO Jean-Marc/BOUERI Jonathan Mitsubishi Lancer Evo9 R 4 32:29,2 +11:04,2 +00:23,2 1
85 91 DI PAOLO Alain/MORILLON Frederika Peugeot 106 S16 FN 2 33:10,9 +11:45,9 +00:41,7
86 93 BRAQUET Jean-Baptiste/BRAQUET Elyse Peugeot 106 XSI FN 1 33:49,3 +12:24,3 +00:38,4
87 73 SOUFFEZ Frédéric/PRUVOST Astrid Peugeot 206 Rc FA 7 38:55,3 +17:30,3 +05:06,0 1 2
Clt Equipage Voiture Gr/Cl Temps Ecart 1er Ecart préc. Catégories
Commentaires: © PatricK Soft  
(Temps forfaitaires=couleur bleue)
Classés:87

Epreuve: Groupe: Catégorie:

 
Retour
Classement après ES3-Perrogney-les-Fontaines - Vauxbons (8.000 km)